Time;durP1;ratioP1;P1;durP2;ratioP2;P2;SDS_P1;SDS_P2;PMS_P1;PMS_P2;Temp;Humidity;BMP_temperature;BMP_pressure;BME280_temperature;BME280_humidity;BME280_pressure;Samples;Min_cycle;Max_cycle;Signal;HPM_P1;HPM_P2
2023/07/10 00:00:52;;;;;;;6.03;3.97;;;23.30;98.00;;;;;;5012995;28;20459;-72
2023/07/10 00:03:19;;;;;;;7.67;4.27;;;23.20;98.00;;;;;;5012698;28;20570;-71
2023/07/10 00:05:46;;;;;;;11.43;4.50;;;23.40;98.00;;;;;;5012841;28;20510;-71
2023/07/10 00:08:13;;;;;;;9.50;4.20;;;23.30;98.00;;;;;;5012752;28;20462;-72
2023/07/10 00:10:41;;;;;;;8.50;4.10;;;23.30;98.00;;;;;;5012820;28;20459;-71
2023/07/10 00:13:10;;;;;;;8.03;3.90;;;23.20;98.00;;;;;;5012900;28;20463;-72
2023/07/10 00:15:40;;;;;;;7.97;4.53;;;23.20;98.00;;;;;;5012913;28;20482;-72
2023/07/10 00:18:14;;;;;;;7.53;4.37;;;23.20;98.00;;;;;;5013022;28;20463;-71
2023/07/10 00:20:41;;;;;;;10.40;4.37;;;23.10;98.00;;;;;;5013502;28;20558;-72
2023/07/10 00:23:08;;;;;;;6.60;4.30;;;23.00;98.00;;;;;;5012820;28;20483;-71
2023/07/10 00:25:36;;;;;;;8.20;4.10;;;22.80;98.00;;;;;;5012617;28;20448;-71
2023/07/10 00:28:12;;;;;;;7.20;4.13;;;22.80;98.00;;;;;;5012582;28;20456;-71
2023/07/10 00:30:41;;;;;;;10.57;4.60;;;22.70;98.00;;;;;;5012774;28;20483;-72
2023/07/10 00:33:11;;;;;;;7.07;4.63;;;22.70;98.00;;;;;;5012433;28;20972;-72
2023/07/10 00:35:39;;;;;;;7.83;4.67;;;22.70;98.00;;;;;;5012528;28;20502;-71
2023/07/10 00:38:17;;;;;;;9.80;4.97;;;22.70;98.00;;;;;;5012430;28;20942;-71
2023/07/10 00:40:46;;;;;;;10.07;4.50;;;22.70;98.00;;;;;;5012746;28;20459;-72
2023/07/10 00:43:31;;;;;;;6.80;4.23;;;22.50;98.00;;;;;;5012391;28;20586;-72
2023/07/10 00:46:11;;;;;;;7.77;4.63;;;22.70;98.00;;;;;;5012296;28;20464;-72
2023/07/10 00:48:45;;;;;;;8.13;4.30;;;22.70;98.00;;;;;;5012293;28;20921;-71
2023/07/10 00:51:24;;;;;;;7.80;4.30;;;22.50;98.00;;;;;;5012190;28;20460;-72
2023/07/10 00:53:53;;;;;;;7.07;4.03;;;22.40;98.00;;;;;;5012096;28;20464;-71
2023/07/10 00:56:22;;;;;;;7.53;4.20;;;22.40;98.00;;;;;;5011942;28;20463;-72
2023/07/10 00:58:50;;;;;;;9.53;4.70;;;22.30;98.00;;;;;;5012131;28;20464;-72
2023/07/10 01:01:20;;;;;;;10.07;4.23;;;22.30;98.00;;;;;;5011909;28;20936;-72
2023/07/10 01:03:50;;;;;;;7.70;4.10;;;22.30;98.00;;;;;;5014320;28;20506;-72
2023/07/10 01:06:21;;;;;;;8.60;4.20;;;22.40;98.00;;;;;;5016109;28;20462;-72
2023/07/10 01:08:51;;;;;;;7.33;4.47;;;22.50;98.00;;;;;;5016173;28;20460;-71
2023/07/10 01:11:20;;;;;;;8.70;4.70;;;22.50;98.00;;;;;;5015972;28;20462;-72
2023/07/10 01:13:51;;;;;;;7.30;4.10;;;22.20;98.00;;;;;;5016187;28;20482;-71
2023/07/10 01:16:21;;;;;;;7.40;4.50;;;22.10;98.00;;;;;;5015901;28;20469;-71
2023/07/10 01:18:53;;;;;;;10.13;4.70;;;22.20;98.00;;;;;;5016120;28;20459;-72
2023/07/10 01:21:30;;;;;;;8.17;4.57;;;22.40;98.00;;;;;;5015648;28;20471;-72
2023/07/10 01:23:59;;;;;;;10.90;4.27;;;22.20;98.00;;;;;;5016187;28;20460;-72
2023/07/10 01:26:26;;;;;;;8.23;3.87;;;22.00;98.00;;;;;;5015870;28;20474;-72
2023/07/10 01:28:55;;;;;;;7.57;4.37;;;22.20;98.00;;;;;;5016071;28;20463;-71
2023/07/10 01:31:25;;;;;;;8.40;4.40;;;22.10;98.00;;;;;;5015996;28;20455;-72
2023/07/10 01:33:57;;;;;;;8.47;4.40;;;22.00;98.00;;;;;;5014807;28;20514;-71
2023/07/10 01:36:36;;;;;;;7.90;3.63;;;22.10;98.00;;;;;;5015871;28;20447;-71
2023/07/10 01:39:07;;;;;;;8.80;4.40;;;22.20;98.00;;;;;;5015765;28;20459;-71
2023/07/10 01:41:39;;;;;;;13.47;4.67;;;22.30;98.00;;;;;;5015404;28;20854;-71
2023/07/10 01:44:24;;;;;;;9.43;4.63;;;22.30;98.00;;;;;;5015316;28;20467;-71
2023/07/10 01:46:52;;;;;;;9.53;3.90;;;22.10;98.00;;;;;;5015258;28;20462;-70
2023/07/10 01:49:23;;;;;;;9.30;4.20;;;22.00;98.00;;;;;;5015414;28;20539;-72
2023/07/10 01:51:52;;;;;;;6.07;3.90;;;22.00;98.00;;;;;;5014022;28;20463;-72
2023/07/10 01:54:20;;;;;;;6.63;3.90;;;21.90;98.00;;;;;;5015238;28;20949;-71
2023/07/10 01:56:47;;;;;;;7.97;4.20;;;21.80;98.00;;;;;;5015232;28;20451;-71
2023/07/10 01:59:14;;;;;;;8.80;3.90;;;21.80;98.00;;;;;;5015177;28;20455;-71
2023/07/10 02:01:41;;;;;;;7.17;4.20;;;21.80;98.00;;;;;;5013804;28;20586;-71
2023/07/10 02:04:09;;;;;;;12.10;4.17;;;21.80;98.00;;;;;;5014997;28;20447;-71
2023/07/10 02:06:37;;;;;;;8.27;4.20;;;21.70;98.00;;;;;;5013750;28;20925;-71
2023/07/10 02:09:06;;;;;;;7.27;3.97;;;21.70;98.00;;;;;;5014994;28;20472;-71
2023/07/10 02:11:34;;;;;;;8.80;4.17;;;21.80;98.00;;;;;;5014976;28;20455;-72
2023/07/10 02:14:02;;;;;;;8.90;4.77;;;21.70;98.00;;;;;;5013409;28;20464;-71
2023/07/10 02:16:29;;;;;;;7.10;3.80;;;21.80;98.00;;;;;;5014273;28;20506;-71
2023/07/10 02:18:57;;;;;;;8.80;4.30;;;21.80;98.00;;;;;;5015170;28;20460;-71
2023/07/10 02:21:24;;;;;;;5.90;4.00;;;21.80;98.00;;;;;;5014869;28;20790;-71
2023/07/10 02:23:51;;;;;;;10.10;4.30;;;22.00;98.00;;;;;;5013786;28;20486;-72
2023/07/10 02:26:19;;;;;;;8.17;4.50;;;22.10;98.00;;;;;;5015054;28;20526;-71
2023/07/10 02:28:46;;;;;;;9.47;4.20;;;22.30;98.00;;;;;;5015196;28;20462;-71
2023/07/10 02:31:13;;;;;;;7.00;4.20;;;22.30;98.00;;;;;;5015170;28;20456;-73
2023/07/10 02:33:41;;;;;;;7.27;4.20;;;22.20;98.00;;;;;;5015145;28;20467;-72
2023/07/10 02:36:08;;;;;;;8.10;4.00;;;22.10;98.00;;;;;;5013667;28;20513;-72
2023/07/10 02:38:35;;;;;;;8.67;4.60;;;22.10;98.00;;;;;;5014624;28;20960;-72
2023/07/10 02:41:02;;;;;;;8.70;4.70;;;22.10;98.00;;;;;;5012989;28;20522;-71
2023/07/10 02:43:33;;;;;;;8.87;4.23;;;22.00;98.00;;;;;;5014073;28;20487;-71
2023/07/10 02:46:00;;;;;;;8.97;4.10;;;21.90;98.00;;;;;;5014313;28;20467;-72
2023/07/10 02:48:28;;;;;;;7.20;4.33;;;21.80;98.00;;;;;;5014102;28;20490;-71
2023/07/10 02:50:55;;;;;;;8.70;4.57;;;21.70;98.00;;;;;;5014433;28;20455;-72
2023/07/10 02:53:22;;;;;;;7.40;4.17;;;21.60;98.00;;;;;;5013963;28;20521;-72
2023/07/10 02:55:49;;;;;;;9.83;4.57;;;21.70;98.00;;;;;;5014320;28;20478;-71
2023/07/10 02:58:18;;;;;;;5.10;3.90;;;21.80;98.00;;;;;;5014027;28;20849;-72
2023/07/10 03:00:56;;;;;;;8.17;4.30;;;21.80;98.00;;;;;;5014092;28;20466;-71
2023/07/10 03:03:23;;;;;;;6.70;4.13;;;21.90;98.00;;;;;;5013890;28;20516;-72
2023/07/10 03:06:11;;;;;;;8.50;4.43;;;21.90;98.00;;;;;;5014018;28;20459;-72
2023/07/10 03:08:40;;;;;;;6.47;4.40;;;21.90;98.00;;;;;;5013765;28;20844;-71
2023/07/10 03:11:10;;;;;;;9.07;4.50;;;21.80;98.00;;;;;;5013891;28;20659;-71
2023/07/10 03:13:37;;;;;;;7.60;4.30;;;21.60;98.00;;;;;;5013738;28;20451;-71
2023/07/10 03:16:08;;;;;;;8.30;4.60;;;21.60;98.00;;;;;;5013239;28;20490;-72
2023/07/10 03:18:35;;;;;;;9.20;4.50;;;21.60;98.00;;;;;;5013056;28;20459;-71
2023/07/10 03:21:02;;;;;;;11.57;5.90;;;21.80;98.00;;;;;;5012734;28;20837;-73
2023/07/10 03:23:30;;;;;;;11.83;5.00;;;21.60;98.00;;;;;;5012996;28;20907;-72
2023/07/10 03:25:57;;;;;;;8.23;4.70;;;21.60;98.00;;;;;;5012938;28;20571;-71
2023/07/10 03:28:25;;;;;;;7.63;4.10;;;21.70;98.00;;;;;;5013088;28;20969;-72
2023/07/10 03:30:53;;;;;;;8.60;4.60;;;22.00;98.00;;;;;;5013380;28;20463;-72
2023/07/10 03:33:21;;;;;;;7.53;4.03;;;21.90;98.00;;;;;;5012587;28;20534;-71
2023/07/10 03:35:58;;;;;;;7.67;4.60;;;22.00;98.00;;;;;;5013027;28;20506;-72
2023/07/10 03:38:25;;;;;;;17.60;5.30;;;22.00;98.00;;;;;;5012695;28;20513;-72
2023/07/10 03:40:55;;;;;;;6.30;4.00;;;22.00;98.00;;;;;;5013094;28;20456;-71
2023/07/10 03:43:23;;;;;;;7.70;4.47;;;21.80;98.00;;;;;;5222113;22;20547;-70
2023/07/10 03:45:50;;;;;;;9.20;4.67;;;21.70;98.00;;;;;;5032099;28;20466;-67
2023/07/10 03:48:17;;;;;;;10.83;5.20;;;21.60;98.00;;;;;;5033040;28;20455;-67
2023/07/10 03:50:46;;;;;;;8.20;4.50;;;21.60;98.00;;;;;;5032972;28;20520;-67
2023/07/10 03:53:13;;;;;;;6.30;4.30;;;21.50;98.00;;;;;;5032781;28;20455;-67
2023/07/10 03:55:49;;;;;;;11.20;4.83;;;21.50;98.00;;;;;;5032814;28;20859;-67
2023/07/10 03:58:21;;;;;;;8.17;4.50;;;21.80;98.00;;;;;;5032733;28;20968;-67
2023/07/10 04:00:49;;;;;;;6.17;3.90;;;21.90;98.00;;;;;;5032914;28;21185;-67
2023/07/10 04:03:16;;;;;;;6.80;4.40;;;21.90;98.00;;;;;;5032428;28;20858;-67
2023/07/10 04:05:49;;;;;;;7.33;4.50;;;21.90;98.00;;;;;;5032652;28;20467;-67
2023/07/10 04:08:16;;;;;;;8.03;4.30;;;21.90;98.00;;;;;;5032648;28;20462;-67
2023/07/10 04:10:58;;;;;;;7.47;4.67;;;22.00;98.00;;;;;;5032439;28;20462;-67
2023/07/10 04:13:25;;;;;;;7.10;4.00;;;22.00;98.00;;;;;;5032572;28;20579;-67
2023/07/10 04:16:00;;;;;;;8.67;4.57;;;21.90;98.00;;;;;;5032395;28;20450;-67
2023/07/10 04:18:29;;;;;;;7.67;3.93;;;21.80;98.00;;;;;;5032331;28;20450;-67
2023/07/10 04:20:58;;;;;;;7.77;4.20;;;21.80;98.00;;;;;;5032625;28;20466;-67
2023/07/10 04:23:26;;;;;;;9.03;5.27;;;21.70;98.00;;;;;;5032034;28;21058;-67
2023/07/10 04:25:53;;;;;;;10.03;4.50;;;21.70;98.00;;;;;;5032454;28;20466;-67
2023/07/10 04:28:20;;;;;;;10.30;4.73;;;21.80;98.00;;;;;;5032235;28;20608;-67
2023/07/10 04:30:48;;;;;;;7.83;4.30;;;21.90;98.00;;;;;;5032339;28;20521;-67
2023/07/10 04:33:16;;;;;;;8.83;4.70;;;22.00;98.00;;;;;;5030966;28;20521;-67
2023/07/10 04:35:44;;;;;;;10.13;4.53;;;22.00;98.00;;;;;;5032277;28;20459;-67
2023/07/10 04:38:12;;;;;;;7.23;4.10;;;22.10;98.00;;;;;;5031519;28;20550;-67
2023/07/10 04:40:39;;;;;;;9.30;4.50;;;22.30;98.00;;;;;;5032202;28;20461;-67
2023/07/10 04:43:07;;;;;;;9.30;4.70;;;22.40;98.00;;;;;;5031911;28;20482;-67
2023/07/10 04:45:34;;;;;;;12.27;4.77;;;22.60;98.00;;;;;;5031865;28;20960;-67
2023/07/10 04:48:01;;;;;;;8.20;4.80;;;22.60;98.00;;;;;;5031897;28;20508;-67
2023/07/10 04:50:28;;;;;;;7.40;4.50;;;22.60;98.00;;;;;;5032086;28;20450;-69
2023/07/10 04:52:55;;;;;;;9.60;4.57;;;22.50;98.00;;;;;;5032019;28;20948;-69
2023/07/10 04:55:24;;;;;;;8.10;4.63;;;22.40;98.00;;;;;;5030860;28;20455;-70
2023/07/10 04:57:51;;;;;;;8.97;5.30;;;22.30;98.00;;;;;;5031947;28;20454;-70
2023/07/10 05:00:19;;;;;;;7.73;4.70;;;22.20;98.00;;;;;;5030390;28;20467;-70
2023/07/10 05:02:46;;;;;;;9.83;5.47;;;22.10;98.00;;;;;;5031076;28;20458;-69
2023/07/10 05:05:13;;;;;;;8.70;4.70;;;22.10;98.00;;;;;;5031086;28;20557;-70
2023/07/10 05:07:43;;;;;;;8.07;4.60;;;22.20;98.00;;;;;;5030207;28;20872;-69
2023/07/10 05:10:11;;;;;;;13.93;4.87;;;22.30;98.00;;;;;;5030246;28;20459;-70
2023/07/10 05:12:39;;;;;;;9.40;4.73;;;22.30;98.00;;;;;;5030260;28;20871;-69
2023/07/10 05:15:08;;;;;;;11.73;4.60;;;22.20;98.00;;;;;;5031154;28;20967;-70
2023/07/10 05:17:35;;;;;;;10.50;5.27;;;22.30;98.00;;;;;;5029800;28;20458;-70
2023/07/10 05:20:02;;;;;;;7.03;4.47;;;22.30;98.00;;;;;;5030826;28;20462;-69
2023/07/10 05:22:29;;;;;;;8.93;4.73;;;22.50;98.00;;;;;;5030953;28;20465;-70
2023/07/10 05:24:57;;;;;;;10.23;5.07;;;22.50;98.00;;;;;;5031232;28;20486;-70
2023/07/10 05:27:24;;;;;;;10.80;5.70;;;22.50;98.00;;;;;;5031631;28;20781;-70
2023/07/10 05:29:52;;;;;;;10.40;5.83;;;22.60;98.00;;;;;;5031693;28;20459;-69
2023/07/10 05:32:20;;;;;;;7.83;4.90;;;22.70;98.00;;;;;;5031537;28;20828;-70
2023/07/10 05:34:47;;;;;;;10.90;5.50;;;22.80;98.00;;;;;;5031615;28;20463;-70
2023/07/10 05:37:14;;;;;;;15.80;5.30;;;22.90;98.00;;;;;;5031516;28;20457;-70
2023/07/10 05:39:42;;;;;;;9.27;5.37;;;22.90;98.00;;;;;;5031886;28;20459;-70
2023/07/10 05:42:09;;;;;;;9.07;5.33;;;22.80;98.00;;;;;;5030348;28;20469;-70
2023/07/10 05:44:36;;;;;;;7.53;5.03;;;22.80;98.00;;;;;;5031349;28;21081;-70
2023/07/10 05:47:13;;;;;;;9.77;4.93;;;22.80;98.00;;;;;;5030173;28;21029;-70
2023/07/10 05:49:40;;;;;;;10.07;5.50;;;23.10;98.00;;;;;;5033410;28;20445;-65
2023/07/10 05:52:08;;;;;;;10.43;5.13;;;23.00;98.00;;;;;;5035269;28;20477;-65
2023/07/10 05:54:35;;;;;;;11.80;5.00;;;23.00;98.00;;;;;;5035167;28;20466;-65
2023/07/10 05:57:02;;;;;;;10.07;5.00;;;23.00;98.00;;;;;;5035145;28;20477;-65
2023/07/10 05:59:29;;;;;;;7.50;4.70;;;23.10;98.00;;;;;;5035313;28;20466;-65
2023/07/10 06:01:57;;;;;;;7.73;4.30;;;23.30;98.00;;;;;;5035103;28;20458;-64
2023/07/10 06:04:26;;;;;;;11.50;5.50;;;23.50;98.00;;;;;;5035276;28;20490;-65
2023/07/10 06:06:53;;;;;;;7.50;4.80;;;23.70;98.00;;;;;;5035018;28;20462;-65
2023/07/10 06:09:20;;;;;;;7.50;4.87;;;23.90;98.00;;;;;;5034843;28;20998;-65
2023/07/10 06:11:47;;;;;;;9.87;5.13;;;24.20;98.00;;;;;;5034874;28;20462;-65
2023/07/10 06:14:15;;;;;;;16.20;5.83;;;24.40;98.00;;;;;;5034682;28;20458;-65
2023/07/10 06:16:42;;;;;;;8.17;4.63;;;24.60;98.00;;;;;;5034673;28;20451;-66
2023/07/10 06:19:09;;;;;;;8.43;4.53;;;24.80;98.00;;;;;;5034603;28;20480;-65
2023/07/10 06:21:44;;;;;;;9.98;5.10;;;24.90;98.00;;;;;;5033271;28;20515;-66
2023/07/10 06:24:11;;;;;;;8.75;4.03;;;25.10;98.00;;;;;;5031949;28;20453;-66
2023/07/10 06:26:47;;;;;;;11.05;5.65;;;25.30;98.00;;;;;;5033104;28;20874;-66
2023/07/10 06:29:14;;;;;;;8.45;5.30;;;25.50;98.00;;;;;;5033298;28;20852;-65
2023/07/10 06:31:41;;;;;;;8.60;5.07;;;25.70;98.00;;;;;;5033740;28;20453;-66
2023/07/10 06:34:08;;;;;;;8.15;4.90;;;25.90;98.00;;;;;;5033889;28;20449;-66
2023/07/10 06:36:35;;;;;;;11.38;5.75;;;26.00;98.00;;;;;;5033040;28;20445;-66
2023/07/10 06:39:05;;;;;;;10.25;5.78;;;26.30;98.00;;;;;;5032595;28;20464;-66
2023/07/10 06:41:32;;;;;;;11.33;5.53;;;26.50;98.00;;;;;;5034185;28;20211;-66
2023/07/10 06:43:59;;;;;;;10.90;5.50;;;26.50;97.60;;;;;;5034001;28;20548;-65
2023/07/10 06:46:26;;;;;;;8.53;5.07;;;26.50;97.70;;;;;;5034365;28;20463;-65
2023/07/10 06:48:53;;;;;;;9.20;4.87;;;26.60;96.90;;;;;;5034201;28;20459;-66
2023/07/10 06:51:20;;;;;;;9.67;5.57;;;26.60;97.00;;;;;;5034246;28;20962;-66
2023/07/10 06:53:48;;;;;;;10.47;6.17;;;26.60;96.80;;;;;;5034311;28;20470;-66
2023/07/10 06:56:16;;;;;;;13.33;6.10;;;26.70;96.90;;;;;;5033177;28;20513;-66
2023/07/10 06:58:43;;;;;;;10.47;6.37;;;26.70;97.00;;;;;;5034094;28;20459;-67
2023/07/10 07:01:13;;;;;;;10.40;5.50;;;26.70;97.50;;;;;;5033546;28;20504;-66
2023/07/10 07:03:40;;;;;;;10.63;5.50;;;26.70;97.90;;;;;;5033775;28;20518;-67
2023/07/10 07:06:08;;;;;;;10.00;5.50;;;26.80;97.70;;;;;;5031082;28;20462;-67
2023/07/10 07:08:35;;;;;;;11.03;6.20;;;26.90;97.70;;;;;;5033426;28;20952;-67
2023/07/10 07:11:03;;;;;;;10.40;5.67;;;27.00;96.90;;;;;;5033552;28;20646;-67
2023/07/10 07:13:32;;;;;;;10.03;6.17;;;27.10;97.80;;;;;;5033408;28;20461;-66
2023/07/10 07:15:59;;;;;;;10.77;6.20;;;27.30;97.30;;;;;;5048322;28;20825;-65
2023/07/10 07:18:26;;;;;;;11.23;6.50;;;27.40;96.90;;;;;;5053125;28;20454;-65
2023/07/10 07:20:53;;;;;;;8.87;5.70;;;27.50;96.80;;;;;;5053311;28;20450;-66
2023/07/10 07:23:23;;;;;;;10.33;5.50;;;27.70;95.80;;;;;;5053081;28;20893;-67
2023/07/10 07:25:50;;;;;;;10.83;5.73;;;27.90;95.60;;;;;;5053146;28;20476;-66
2023/07/10 07:28:17;;;;;;;8.97;5.47;;;28.20;94.80;;;;;;5053184;28;20824;-66
2023/07/10 07:30:48;;;;;;;10.30;6.00;;;28.30;94.20;;;;;;5052912;28;20511;-66
2023/07/10 07:33:15;;;;;;;10.17;5.20;;;28.40;93.80;;;;;;5053039;28;20982;-66
2023/07/10 07:35:42;;;;;;;9.50;5.50;;;28.40;94.10;;;;;;5053162;28;20858;-65
2023/07/10 07:38:09;;;;;;;10.40;5.90;;;28.40;94.20;;;;;;5052961;28;20495;-65
2023/07/10 07:40:40;;;;;;;11.80;6.20;;;28.40;94.30;;;;;;5053164;28;20853;-65
2023/07/10 07:43:07;;;;;;;8.67;5.40;;;28.40;94.00;;;;;;5052916;28;21020;-66
2023/07/10 07:45:34;;;;;;;7.97;5.40;;;28.40;94.10;;;;;;5052842;28;20488;-66
2023/07/10 07:48:02;;;;;;;9.03;5.50;;;28.40;94.50;;;;;;5053000;28;20943;-65
2023/07/10 07:50:29;;;;;;;11.13;5.87;;;28.50;94.60;;;;;;5051626;28;20454;-66
2023/07/10 07:52:56;;;;;;;12.00;5.50;;;28.50;94.30;;;;;;5053118;28;20845;-66
2023/07/10 07:55:24;;;;;;;12.77;6.43;;;28.50;94.20;;;;;;5051683;28;20454;-66
2023/07/10 07:57:51;;;;;;;9.60;5.77;;;28.50;94.30;;;;;;5051815;28;20465;-66
2023/07/10 08:00:18;;;;;;;8.60;5.60;;;28.40;94.60;;;;;;5052578;28;20465;-66
2023/07/10 08:02:45;;;;;;;9.87;6.27;;;28.50;94.90;;;;;;5052627;28;20454;-66
2023/07/10 08:05:14;;;;;;;10.20;5.83;;;28.60;94.00;;;;;;5052430;28;20486;-66
2023/07/10 08:07:41;;;;;;;12.47;6.30;;;28.60;94.20;;;;;;5052301;28;20468;-65
2023/07/10 08:10:08;;;;;;;13.63;6.30;;;28.50;94.00;;;;;;5052491;28;20453;-65
2023/07/10 08:12:35;;;;;;;9.53;6.37;;;28.50;94.50;;;;;;5051430;28;20448;-66
2023/07/10 08:15:03;;;;;;;9.83;5.87;;;28.50;94.60;;;;;;5052489;28;20458;-66
2023/07/10 08:17:30;;;;;;;10.40;6.10;;;28.50;95.10;;;;;;5052198;28;20458;-66
2023/07/10 08:19:58;;;;;;;10.90;6.33;;;28.60;94.70;;;;;;5052485;28;20450;-65
2023/07/10 08:22:26;;;;;;;8.97;5.90;;;28.70;94.00;;;;;;5051308;28;21158;-66
2023/07/10 08:24:54;;;;;;;10.23;6.20;;;28.90;94.30;;;;;;5052372;28;20515;-65
2023/07/10 08:27:21;;;;;;;9.77;6.07;;;29.00;93.80;;;;;;5052163;28;20462;-65
2023/07/10 08:29:48;;;;;;;9.83;5.90;;;29.20;93.40;;;;;;5051213;28;20457;-66
2023/07/10 08:32:15;;;;;;;9.70;6.07;;;29.30;93.40;;;;;;5052222;28;20462;-66
2023/07/10 08:34:42;;;;;;;8.70;5.50;;;29.40;93.30;;;;;;5052336;28;20490;-65
2023/07/10 08:37:09;;;;;;;10.23;6.43;;;29.40;93.30;;;;;;5052108;28;20866;-66
2023/07/10 08:39:38;;;;;;;11.40;5.90;;;29.50;92.70;;;;;;5050951;28;20951;-66
2023/07/10 08:42:15;;;;;;;10.60;6.10;;;29.50;92.30;;;;;;5052110;28;20468;-66
2023/07/10 08:44:43;;;;;;;9.13;5.47;;;29.50;93.20;;;;;;5051885;28;20485;-66
2023/07/10 08:47:18;;;;;;;10.17;5.57;;;29.70;92.90;;;;;;5051867;28;20492;-66
2023/07/10 08:49:54;;;;;;;10.47;5.10;;;29.80;92.40;;;;;;5052245;28;20942;-66
2023/07/10 08:52:32;;;;;;;8.40;5.37;;;29.70;92.20;;;;;;5051945;28;20930;-66
2023/07/10 08:55:01;;;;;;;8.90;4.60;;;29.80;92.40;;;;;;5051889;28;20823;-65
2023/07/10 08:57:33;;;;;;;6.83;4.50;;;29.90;92.30;;;;;;5051429;28;20462;-65
2023/07/10 09:00:10;;;;;;;7.40;4.47;;;30.10;91.60;;;;;;5029029;28;20482;-64
2023/07/10 09:02:42;;;;;;;8.37;5.00;;;30.10;91.60;;;;;;5030142;28;20826;-64
2023/07/10 09:05:19;;;;;;;7.50;4.60;;;30.00;92.30;;;;;;5031884;28;20533;-64
2023/07/10 09:07:48;;;;;;;6.83;4.80;;;30.10;91.80;;;;;;5031642;28;20825;-64
2023/07/10 09:10:21;;;;;;;10.40;5.20;;;30.10;91.40;;;;;;5030429;28;20601;-67
2023/07/10 09:12:50;;;;;;;7.70;5.27;;;30.20;91.40;;;;;;5031707;28;20967;-70
2023/07/10 09:15:21;;;;;;;7.47;4.67;;;30.30;90.60;;;;;;5031761;28;20936;-66
2023/07/10 09:18:01;;;;;;;7.40;5.00;;;30.40;90.80;;;;;;5030626;28;20466;-65
2023/07/10 09:20:28;;;;;;;9.77;5.13;;;30.40;90.70;;;;;;5031890;28;20455;-66
2023/07/10 09:22:58;;;;;;;11.00;5.23;;;30.40;91.60;;;;;;5031898;28;20458;-68
2023/07/10 09:25:27;;;;;;;8.07;4.93;;;30.60;91.30;;;;;;5034145;28;20502;-68
2023/07/10 09:27:55;;;;;;;9.10;5.37;;;30.60;91.40;;;;;;5055381;28;20453;-67
2023/07/10 09:30:40;;;;;;;8.98;5.45;;;30.70;91.70;;;;;;5055318;28;20974;-66
2023/07/10 09:33:10;;;;;;;14.00;4.97;;;30.80;90.90;;;;;;5055643;28;20203;-66
2023/07/10 09:35:41;;;;;;;7.40;5.07;;;30.80;90.80;;;;;;5055627;28;20454;-66
2023/07/10 09:38:12;;;;;;;6.90;4.80;;;30.80;90.10;;;;;;5055609;28;20519;-65
2023/07/10 09:40:43;;;;;;;9.37;5.30;;;30.60;90.30;;;;;;5055620;28;20500;-66
2023/07/10 09:43:15;;;;;;;9.10;4.60;;;30.60;90.70;;;;;;5055351;28;20461;-67
2023/07/10 09:45:46;;;;;;;8.80;5.37;;;30.70;90.40;;;;;;5055274;28;20863;-66
2023/07/10 09:48:24;;;;;;;13.23;5.40;;;30.80;91.00;;;;;;5055223;28;20500;-67
2023/07/10 09:50:52;;;;;;;8.20;5.70;;;30.70;91.30;;;;;;5055396;28;20503;-67
2023/07/10 09:53:30;;;;;;;9.90;5.47;;;30.50;91.00;;;;;;5054976;28;20453;-67
2023/07/10 09:55:59;;;;;;;8.20;5.23;;;30.60;91.60;;;;;;5054795;28;20468;-66
2023/07/10 09:58:26;;;;;;;9.30;4.97;;;30.90;91.70;;;;;;5054783;28;20461;-65
2023/07/10 10:00:59;;;;;;;10.20;5.57;;;31.00;91.80;;;;;;5054993;28;20461;-64
2023/07/10 10:03:28;;;;;;;10.00;5.27;;;30.90;91.20;;;;;;5054759;28;20457;-68
2023/07/10 10:05:56;;;;;;;8.50;5.20;;;30.80;92.00;;;;;;5054708;28;21060;-67
2023/07/10 10:08:27;;;;;;;7.67;5.20;;;30.80;91.70;;;;;;5054175;28;20454;-66
2023/07/10 10:11:05;;;;;;;10.90;5.30;;;30.80;91.50;;;;;;5044684;28;20459;-67
2023/07/10 10:13:36;;;;;;;9.20;5.20;;;30.90;92.20;;;;;;5034479;28;20863;-66
2023/07/10 10:18:51;;;;;;;8.97;5.73;;;30.70;92.30;;;;;;5209662;22;20471;-67
2023/07/10 10:21:20;;;;;;;9.70;5.30;;;30.90;92.30;;;;;;5014364;28;20460;-66
2023/07/10 10:23:49;;;;;;;8.40;5.27;;;31.00;91.20;;;;;;5014907;28;20571;-67
2023/07/10 10:26:40;;;;;;;8.87;5.73;;;31.00;91.40;;;;;;5014685;28;20482;-67
2023/07/10 10:29:25;;;;;;;9.30;5.10;;;31.10;90.40;;;;;;4986927;28;20467;-67
2023/07/10 10:32:01;;;;;;;9.67;5.53;;;31.20;90.70;;;;;;5015107;28;20463;-66
2023/07/10 10:34:39;;;;;;;7.70;4.87;;;31.40;91.10;;;;;;5204064;22;20430;-67
2023/07/10 10:37:25;;;;;;;9.17;5.53;;;31.60;90.00;;;;;;5390688;22;20502;-65
2023/07/10 10:39:59;;;;;;;7.07;4.97;;;31.70;90.10;;;;;;5209499;22;20479;-65
2023/07/10 10:47:59;;;;;;;8.03;5.00;;;32.10;88.20;;;;;;5173863;22;20497;-65
2023/07/10 10:50:53;;;;;;;9.47;5.63;;;32.30;88.40;;;;;;4954005;28;20899;-67
2023/07/10 10:53:42;;;;;;;8.93;5.23;;;32.40;88.00;;;;;;4953354;28;20462;-65
2023/07/10 10:56:19;;;;;;;9.57;6.03;;;32.50;87.30;;;;;;4953854;28;20474;-65
2023/07/10 10:58:57;;;;;;;9.00;5.83;;;32.50;87.50;;;;;;4955633;28;20461;-67
2023/07/10 11:01:39;;;;;;;9.87;6.40;;;32.50;87.20;;;;;;4955509;28;20466;-66
2023/07/10 11:04:31;;;;;;;10.07;5.60;;;32.50;87.20;;;;;;4955695;28;20466;-65
2023/07/10 11:07:02;;;;;;;8.83;5.80;;;32.40;87.10;;;;;;4955710;28;20459;-65
2023/07/10 11:09:34;;;;;;;9.37;6.17;;;32.50;86.30;;;;;;4955607;28;20470;-66
2023/07/10 11:12:04;;;;;;;12.30;5.93;;;32.70;86.00;;;;;;4955350;28;20469;-66
2023/07/10 11:14:31;;;;;;;10.27;6.40;;;32.60;85.90;;;;;;4955532;28;20458;-65
2023/07/10 11:16:59;;;;;;;9.57;5.90;;;32.70;86.00;;;;;;4955051;28;20481;-67
2023/07/10 11:19:30;;;;;;;8.90;5.90;;;32.70;85.30;;;;;;4955376;28;21127;-65
2023/07/10 11:22:09;;;;;;;8.10;5.40;;;32.50;86.20;;;;;;4955643;28;20454;-66
2023/07/10 11:24:36;;;;;;;8.40;4.93;;;32.40;86.10;;;;;;4955419;28;20947;-66
2023/07/10 11:27:13;;;;;;;8.70;5.73;;;32.50;86.80;;;;;;4955561;28;20457;-65
2023/07/10 11:29:43;;;;;;;8.07;5.30;;;32.50;86.10;;;;;;4955662;28;20458;-66
2023/07/10 11:32:20;;;;;;;7.93;5.70;;;32.50;86.40;;;;;;4954510;29;20517;-65
2023/07/10 11:35:13;;;;;;;11.27;6.20;;;32.90;86.00;;;;;;4955683;28;20491;-65
2023/07/10 11:38:05;;;;;;;11.40;6.20;;;33.10;84.50;;;;;;4955248;28;20464;-66
2023/07/10 11:40:46;;;;;;;9.07;5.97;;;33.00;84.10;;;;;;4955308;28;20462;-66
2023/07/10 11:43:50;;;;;;;8.70;6.00;;;33.00;84.30;;;;;;4964782;28;20457;-66
2023/07/10 11:46:22;;;;;;;8.83;5.90;;;32.80;84.90;;;;;;4943028;28;20909;-65
2023/07/10 11:49:13;;;;;;;9.57;6.10;;;32.50;85.90;;;;;;4974267;28;20468;-66
2023/07/10 11:51:41;;;;;;;8.60;5.83;;;32.40;86.70;;;;;;4974138;28;20464;-63
2023/07/10 11:54:41;;;;;;;9.83;5.73;;;32.60;86.80;;;;;;4973089;28;20540;-67
2023/07/10 11:57:19;;;;;;;10.70;6.00;;;32.90;85.40;;;;;;4962863;28;20473;-66
2023/07/10 11:59:50;;;;;;;10.57;6.03;;;33.00;84.70;;;;;;4974015;28;21002;-67
2023/07/10 12:02:43;;;;;;;11.50;6.33;;;33.00;85.00;;;;;;4973799;28;20465;-66
2023/07/10 12:05:18;;;;;;;10.60;5.90;;;33.10;84.30;;;;;;4972513;28;20494;-66
2023/07/10 12:08:10;;;;;;;9.40;5.80;;;33.30;84.60;;;;;;4973864;28;20463;-66
2023/07/10 12:10:40;;;;;;;10.50;5.60;;;33.50;82.70;;;;;;4971471;28;20488;-66
2023/07/10 12:13:18;;;;;;;9.37;5.93;;;33.80;83.30;;;;;;4973754;28;20485;-65
2023/07/10 12:15:46;;;;;;;8.33;6.00;;;33.80;82.60;;;;;;4973769;28;20544;-67
2023/07/10 12:18:16;;;;;;;12.37;5.93;;;34.00;82.10;;;;;;4973775;28;20896;-64
2023/07/10 12:20:50;;;;;;;11.70;6.07;;;34.00;81.30;;;;;;4973582;28;20472;-64
2023/07/10 12:23:17;;;;;;;13.23;5.83;;;34.10;80.50;;;;;;4973749;28;20468;-64
2023/07/10 12:25:48;;;;;;;9.57;5.30;;;34.20;80.30;;;;;;4973798;28;20908;-64
2023/07/10 12:28:18;;;;;;;10.17;6.30;;;34.40;79.90;;;;;;4973644;28;20461;-63
2023/07/10 12:30:50;;;;;;;9.67;5.80;;;34.20;80.50;;;;;;4973865;28;20454;-64
2023/07/10 12:33:38;;;;;;;9.23;6.10;;;34.00;80.90;;;;;;4973695;28;20461;-63
2023/07/10 12:36:18;;;;;;;11.43;5.80;;;34.00;80.10;;;;;;4973798;28;20537;-64
2023/07/10 12:38:46;;;;;;;10.50;4.73;;;34.10;79.70;;;;;;4973503;28;20462;-64
2023/07/10 12:41:18;;;;;;;9.93;6.00;;;34.00;81.20;;;;;;4973306;28;20468;-64
2023/07/10 12:43:48;;;;;;;7.13;5.30;;;33.80;79.40;;;;;;4973601;28;20461;-64
2023/07/10 12:46:22;;;;;;;9.07;5.30;;;33.60;79.70;;;;;;4971787;28;20584;-63
2023/07/10 12:48:53;;;;;;;10.80;6.33;;;33.40;79.50;;;;;;4973298;28;20464;-64
2023/07/10 12:51:28;;;;;;;7.50;5.27;;;33.10;80.50;;;;;;4972934;28;20453;-62
2023/07/10 12:53:58;;;;;;;8.67;5.60;;;33.10;79.70;;;;;;4972989;28;20464;-63
2023/07/10 12:56:28;;;;;;;8.83;5.40;;;33.30;79.70;;;;;;4973127;28;20461;-64
2023/07/10 12:58:58;;;;;;;9.23;5.40;;;33.80;78.10;;;;;;4972611;28;20472;-64
2023/07/10 13:01:28;;;;;;;8.97;5.90;;;34.20;77.00;;;;;;4973006;28;20475;-63
2023/07/10 13:04:09;;;;;;;6.73;4.87;;;34.10;75.90;;;;;;4973073;28;20554;-69
2023/07/10 13:06:38;;;;;;;8.40;5.47;;;33.90;75.90;;;;;;4972926;28;20495;-66
2023/07/10 13:09:07;;;;;;;8.10;5.17;;;33.60;76.70;;;;;;4973034;28;20465;-62